sensor_id;sensor_type;location;lat;lon;timestamp;pressure;altitude;pressure_sealevel;temperature;humidity
70229;BME280;57617;51.988;5.854;2023-04-25T00:01:58;100555.69;;;10.71;66.60
70229;BME280;57617;51.988;5.854;2023-04-25T00:04:25;100566.53;;;10.71;66.67
70229;BME280;57617;51.988;5.854;2023-04-25T00:06:53;100563.75;;;10.66;66.47
70229;BME280;57617;51.988;5.854;2023-04-25T00:09:19;100571.56;;;10.63;66.48
70229;BME280;57617;51.988;5.854;2023-04-25T00:11:44;100581.88;;;10.61;66.40
70229;BME280;57617;51.988;5.854;2023-04-25T00:14:09;100583.44;;;10.57;66.46
70229;BME280;57617;51.988;5.854;2023-04-25T00:16:35;100574.28;;;10.46;66.64
70229;BME280;57617;51.988;5.854;2023-04-25T00:19:01;100594.69;;;10.49;66.73
70229;BME280;57617;51.988;5.854;2023-04-25T00:21:28;100588.91;;;10.45;66.73
70229;BME280;57617;51.988;5.854;2023-04-25T00:23:54;100588.50;;;10.37;66.65
70229;BME280;57617;51.988;5.854;2023-04-25T00:26:19;100595.00;;;10.36;66.42
70229;BME280;57617;51.988;5.854;2023-04-25T00:28:46;100599.13;;;10.38;66.36
70229;BME280;57617;51.988;5.854;2023-04-25T00:31:11;100597.50;;;10.37;66.44
70229;BME280;57617;51.988;5.854;2023-04-25T00:33:37;100598.53;;;10.36;66.50
70229;BME280;57617;51.988;5.854;2023-04-25T00:36:02;100596.31;;;10.33;66.70
70229;BME280;57617;51.988;5.854;2023-04-25T00:38:28;100598.81;;;10.35;66.75
70229;BME280;57617;51.988;5.854;2023-04-25T00:40:53;100601.75;;;10.33;66.73
70229;BME280;57617;51.988;5.854;2023-04-25T00:43:20;100609.06;;;10.33;67.07
70229;BME280;57617;51.988;5.854;2023-04-25T00:45:47;100602.31;;;10.35;66.85
70229;BME280;57617;51.988;5.854;2023-04-25T00:48:13;100601.59;;;10.40;66.93
70229;BME280;57617;51.988;5.854;2023-04-25T00:50:39;100606.75;;;10.41;66.85
70229;BME280;57617;51.988;5.854;2023-04-25T00:53:05;100599.69;;;10.40;66.62
70229;BME280;57617;51.988;5.854;2023-04-25T00:55:31;100607.03;;;10.40;66.95
70229;BME280;57617;51.988;5.854;2023-04-25T00:57:57;100611.16;;;10.42;66.96
70229;BME280;57617;51.988;5.854;2023-04-25T01:00:23;100608.69;;;10.41;66.70
70229;BME280;57617;51.988;5.854;2023-04-25T01:02:48;100597.63;;;10.31;66.75
70229;BME280;57617;51.988;5.854;2023-04-25T01:05:15;100604.38;;;10.28;66.79
70229;BME280;57617;51.988;5.854;2023-04-25T01:07:40;100591.69;;;10.17;67.17
70229;BME280;57617;51.988;5.854;2023-04-25T01:10:06;100605.81;;;10.19;67.05
70229;BME280;57617;51.988;5.854;2023-04-25T01:12:32;100616.34;;;10.16;66.92
70229;BME280;57617;51.988;5.854;2023-04-25T01:14:57;100614.72;;;10.15;67.33
70229;BME280;57617;51.988;5.854;2023-04-25T01:17:23;100621.44;;;10.12;66.75
70229;BME280;57617;51.988;5.854;2023-04-25T01:19:49;100619.81;;;10.11;66.84
70229;BME280;57617;51.988;5.854;2023-04-25T01:22:16;100609.88;;;10.05;66.93
70229;BME280;57617;51.988;5.854;2023-04-25T01:24:42;100617.41;;;10.15;67.07
70229;BME280;57617;51.988;5.854;2023-04-25T01:27:08;100615.50;;;10.15;67.42
70229;BME280;57617;51.988;5.854;2023-04-25T01:29:34;100620.13;;;10.15;66.93
70229;BME280;57617;51.988;5.854;2023-04-25T01:32:00;100621.44;;;10.12;67.15
70229;BME280;57617;51.988;5.854;2023-04-25T01:34:26;100626.88;;;10.12;67.15
70229;BME280;57617;51.988;5.854;2023-04-25T01:36:51;100625.22;;;10.11;67.39
70229;BME280;57617;51.988;5.854;2023-04-25T01:39:18;100624.72;;;10.14;67.42
70229;BME280;57617;51.988;5.854;2023-04-25T01:41:44;100615.19;;;10.12;66.96
70229;BME280;57617;51.988;5.854;2023-04-25T01:44:10;100622.25;;;10.13;67.06
70229;BME280;57617;51.988;5.854;2023-04-25T01:46:35;100624.72;;;10.14;67.17
70229;BME280;57617;51.988;5.854;2023-04-25T01:49:01;100630.16;;;10.14;66.82
70229;BME280;57617;51.988;5.854;2023-04-25T01:51:26;100626.63;;;10.14;66.87
70229;BME280;57617;51.988;5.854;2023-04-25T01:53:52;100625.22;;;10.11;67.21
70229;BME280;57617;51.988;5.854;2023-04-25T01:56:18;100642.56;;;10.10;66.89
70229;BME280;57617;51.988;5.854;2023-04-25T01:58:43;100631.97;;;10.09;66.96
70229;BME280;57617;51.988;5.854;2023-04-25T02:01:09;100631.97;;;10.09;66.68
70229;BME280;57617;51.988;5.854;2023-04-25T02:03:35;100640.81;;;10.04;67.03
70229;BME280;57617;51.988;5.854;2023-04-25T02:06:01;100647.50;;;10.02;66.89
70229;BME280;57617;51.988;5.854;2023-04-25T02:08:26;100653.66;;;9.97;66.88
70229;BME280;57617;51.988;5.854;2023-04-25T02:10:52;100647.53;;;9.90;66.98
70229;BME280;57617;51.988;5.854;2023-04-25T02:13:17;100655.44;;;9.92;67.47
70229;BME280;57617;51.988;5.854;2023-04-25T02:15:43;100653.69;;;9.86;67.25
70229;BME280;57617;51.988;5.854;2023-04-25T02:18:08;100653.22;;;9.89;67.15
70229;BME280;57617;51.988;5.854;2023-04-25T02:20:35;100640.03;;;9.81;66.89
70229;BME280;57617;51.988;5.854;2023-04-25T02:23:01;100625.19;;;9.72;66.84
70229;BME280;57617;51.988;5.854;2023-04-25T02:25:27;100651.56;;;9.88;67.13
70229;BME280;57617;51.988;5.854;2023-04-25T02:27:52;100658.88;;;9.87;66.71
70229;BME280;57617;51.988;5.854;2023-04-25T02:30:17;100656.16;;;9.87;67.66
70229;BME280;57617;51.988;5.854;2023-04-25T02:32:43;100655.44;;;9.92;67.04
70229;BME280;57617;51.988;5.854;2023-04-25T02:35:08;100653.81;;;9.91;66.95
70229;BME280;57617;51.988;5.854;2023-04-25T02:37:34;100659.47;;;9.89;66.70
70229;BME280;57617;51.988;5.854;2023-04-25T02:40:00;100661.00;;;9.85;67.23
70229;BME280;57617;51.988;5.854;2023-04-25T02:42:27;100649.22;;;9.80;67.25
70229;BME280;57617;51.988;5.854;2023-04-25T02:44:52;100663.63;;;9.80;66.66
70229;BME280;57617;51.988;5.854;2023-04-25T02:47:18;100662.44;;;9.76;66.94
70229;BME280;57617;51.988;5.854;2023-04-25T02:49:43;100658.34;;;9.74;66.44
70229;BME280;57617;51.988;5.854;2023-04-25T02:52:08;100662.34;;;9.71;66.71
70229;BME280;57617;51.988;5.854;2023-04-25T02:54:34;100662.34;;;9.71;66.65
70229;BME280;57617;51.988;5.854;2023-04-25T02:56:59;100657.63;;;9.67;67.08
70229;BME280;57617;51.988;5.854;2023-04-25T02:59:25;100666.94;;;9.59;66.80
70229;BME280;57617;51.988;5.854;2023-04-25T03:01:50;100665.78;;;9.55;66.40
70229;BME280;57617;51.988;5.854;2023-04-25T03:04:15;100664.38;;;9.53;66.78
70229;BME280;57617;51.988;5.854;2023-04-25T03:06:41;100656.03;;;9.43;67.21
70229;BME280;57617;51.988;5.854;2023-04-25T03:09:06;100661.06;;;9.51;66.33
70229;BME280;57617;51.988;5.854;2023-04-25T03:11:32;100662.00;;;9.45;66.09
70229;BME280;57617;51.988;5.854;2023-04-25T03:13:57;100666.25;;;9.41;66.21
70229;BME280;57617;51.988;5.854;2023-04-25T03:16:24;100657.31;;;9.29;66.49
70229;BME280;57617;51.988;5.854;2023-04-25T03:18:49;100678.88;;;9.35;66.34
70229;BME280;57617;51.988;5.854;2023-04-25T03:21:16;100661.56;;;9.25;66.32
70229;BME280;57617;51.988;5.854;2023-04-25T03:23:41;100678.66;;;9.25;66.39
70229;BME280;57617;51.988;5.854;2023-04-25T03:26:06;100679.94;;;9.23;66.66
70229;BME280;57617;51.988;5.854;2023-04-25T03:28:31;100686.16;;;9.23;66.74
70229;BME280;57617;51.988;5.854;2023-04-25T03:30:57;100684.53;;;9.22;66.44
70229;BME280;57617;51.988;5.854;2023-04-25T03:33:22;100682.31;;;9.19;66.86
70229;BME280;57617;51.988;5.854;2023-04-25T03:35:47;100683.34;;;9.18;66.41
70229;BME280;57617;51.988;5.854;2023-04-25T03:38:13;100679.47;;;9.14;66.20
70229;BME280;57617;51.988;5.854;2023-04-25T03:40:38;100687.81;;;9.13;66.10
70229;BME280;57617;51.988;5.854;2023-04-25T03:43:03;100685.69;;;9.15;66.22
70229;BME280;57617;51.988;5.854;2023-04-25T03:45:28;100686.53;;;9.15;67.06
70229;BME280;57617;51.988;5.854;2023-04-25T03:47:54;100692.75;;;9.16;66.87
70229;BME280;57617;51.988;5.854;2023-04-25T03:50:19;100695.72;;;9.14;66.76
70229;BME280;57617;51.988;5.854;2023-04-25T03:52:44;100688.41;;;9.15;66.67
70229;BME280;57617;51.988;5.854;2023-04-25T03:55:10;100688.19;;;9.16;66.64
70229;BME280;57617;51.988;5.854;2023-04-25T03:57:35;100698.19;;;9.16;66.34
70229;BME280;57617;51.988;5.854;2023-04-25T04:00:01;100690.53;;;9.13;66.20
70229;BME280;57617;51.988;5.854;2023-04-25T04:02:26;100692.06;;;9.09;66.57
70229;BME280;57617;51.988;5.854;2023-04-25T04:04:52;100700.41;;;9.07;66.34
70229;BME280;57617;51.988;5.854;2023-04-25T04:07:17;100698.19;;;9.04;66.00
70229;BME280;57617;51.988;5.854;2023-04-25T04:09:42;100702.41;;;9.00;66.23
70229;BME280;57617;51.988;5.854;2023-04-25T04:12:07;100705.94;;;9.01;66.19
70229;BME280;57617;51.988;5.854;2023-04-25T04:14:33;100713.69;;;8.97;66.05
70229;BME280;57617;51.988;5.854;2023-04-25T04:16:58;100705.69;;;8.91;67.11
70229;BME280;57617;51.988;5.854;2023-04-25T04:19:23;100715.94;;;8.89;66.50
70229;BME280;57617;51.988;5.854;2023-04-25T04:21:49;100715.94;;;8.89;67.03
70229;BME280;57617;51.988;5.854;2023-04-25T04:24:14;100707.81;;;8.89;66.03
70229;BME280;57617;51.988;5.854;2023-04-25T04:26:41;100716.63;;;8.84;66.50
70229;BME280;57617;51.988;5.854;2023-04-25T04:29:09;100717.09;;;8.81;66.69
70229;BME280;57617;51.988;5.854;2023-04-25T04:31:35;100688.06;;;8.59;66.40
70229;BME280;57617;51.988;5.854;2023-04-25T04:34:01;100722.22;;;8.71;66.36
70229;BME280;57617;51.988;5.854;2023-04-25T04:36:26;100722.22;;;8.71;67.08
70229;BME280;57617;51.988;5.854;2023-04-25T04:38:52;100723.75;;;8.67;67.10
70229;BME280;57617;51.988;5.854;2023-04-25T04:41:18;100728.72;;;8.70;66.62
70229;BME280;57617;51.988;5.854;2023-04-25T04:43:44;100729.78;;;8.69;66.34
70229;BME280;57617;51.988;5.854;2023-04-25T04:46:10;100731.19;;;8.72;66.44
70229;BME280;57617;51.988;5.854;2023-04-25T04:48:35;100743.44;;;8.74;66.64
70229;BME280;57617;51.988;5.854;2023-04-25T04:51:00;100744.03;;;8.76;66.33
70229;BME280;57617;51.988;5.854;2023-04-25T04:53:26;100743.34;;;8.81;66.67
70229;BME280;57617;51.988;5.854;2023-04-25T04:55:52;100745.81;;;8.82;66.78
70229;BME280;57617;51.988;5.854;2023-04-25T04:58:17;100730.50;;;8.76;66.45
70229;BME280;57617;51.988;5.854;2023-04-25T05:00:43;100734.41;;;8.80;66.40
70229;BME280;57617;51.988;5.854;2023-04-25T05:03:08;100749.81;;;8.80;66.92
70229;BME280;57617;51.988;5.854;2023-04-25T05:05:33;100757.47;;;8.83;66.40
70229;BME280;57617;51.988;5.854;2023-04-25T05:07:58;100756.78;;;8.87;66.37
70229;BME280;57617;51.988;5.854;2023-04-25T05:10:25;100770.94;;;8.89;66.20
70229;BME280;57617;51.988;5.854;2023-04-25T05:12:50;100766.94;;;8.92;66.67
70229;BME280;57617;51.988;5.854;2023-04-25T05:15:16;100773.78;;;8.94;66.33
70229;BME280;57617;51.988;5.854;2023-04-25T05:17:41;100777.41;;;9.00;67.02
70229;BME280;57617;51.988;5.854;2023-04-25T05:20:07;100779.69;;;9.03;66.69
70229;BME280;57617;51.988;5.854;2023-04-25T05:22:34;100784.63;;;9.06;66.45
70229;BME280;57617;51.988;5.854;2023-04-25T05:24:59;100781.81;;;9.12;66.86
70229;BME280;57617;51.988;5.854;2023-04-25T05:27:24;100789.84;;;9.19;66.48
70229;BME280;57617;51.988;5.854;2023-04-25T05:29:51;100792.13;;;9.22;66.15
70229;BME280;57617;51.988;5.854;2023-04-25T05:32:17;100791.84;;;9.23;66.65
70229;BME280;57617;51.988;5.854;2023-04-25T05:34:43;100794.56;;;9.23;66.84
70229;BME280;57617;51.988;5.854;2023-04-25T05:37:08;100795.28;;;9.19;66.58
70229;BME280;57617;51.988;5.854;2023-04-25T05:39:33;100804.38;;;9.24;66.42
70229;BME280;57617;51.988;5.854;2023-04-25T05:41:59;100798.13;;;9.24;66.38
70229;BME280;57617;51.988;5.854;2023-04-25T05:44:24;100796.13;;;9.31;66.55
70229;BME280;57617;51.988;5.854;2023-04-25T05:46:50;100803.06;;;9.38;66.11
70229;BME280;57617;51.988;5.854;2023-04-25T05:49:15;100803.22;;;9.43;66.85
70229;BME280;57617;51.988;5.854;2023-04-25T05:51:40;100797.91;;;9.48;66.42
70229;BME280;57617;51.988;5.854;2023-04-25T05:54:05;100804.78;;;9.62;66.16
70229;BME280;57617;51.988;5.854;2023-04-25T05:56:31;100814.22;;;9.71;66.52
70229;BME280;57617;51.988;5.854;2023-04-25T05:58:56;100814.47;;;9.81;66.39
70229;BME280;57617;51.988;5.854;2023-04-25T06:01:22;100820.22;;;9.85;65.76
70229;BME280;57617;51.988;5.854;2023-04-25T06:03:48;100820.13;;;9.91;65.72
70229;BME280;57617;51.988;5.854;2023-04-25T06:06:13;100827.88;;;9.99;65.73
70229;BME280;57617;51.988;5.854;2023-04-25T06:08:39;100825.78;;;10.01;65.83
70229;BME280;57617;51.988;5.854;2023-04-25T06:11:05;100822.59;;;10.04;65.83
70229;BME280;57617;51.988;5.854;2023-04-25T06:13:31;100831.78;;;10.03;65.56
70229;BME280;57617;51.988;5.854;2023-04-25T06:15:56;100838.91;;;10.04;65.42
70229;BME280;57617;51.988;5.854;2023-04-25T06:18:21;100846.22;;;10.04;65.16
70229;BME280;57617;51.988;5.854;2023-04-25T06:20:46;100841.38;;;10.06;66.01
70229;BME280;57617;51.988;5.854;2023-04-25T06:23:12;100838.66;;;10.06;65.87
70229;BME280;57617;51.988;5.854;2023-04-25T06:25:37;100843.84;;;10.07;65.59
70229;BME280;57617;51.988;5.854;2023-04-25T06:28:02;100842.56;;;10.10;66.04
70229;BME280;57617;51.988;5.854;2023-04-25T06:30:28;100841.50;;;10.11;65.47
70229;BME280;57617;51.988;5.854;2023-04-25T06:32:53;100841.16;;;10.19;65.48
70229;BME280;57617;51.988;5.854;2023-04-25T06:35:19;100840.19;;;10.25;65.49
70229;BME280;57617;51.988;5.854;2023-04-25T06:37:44;100841.59;;;10.27;65.26
70229;BME280;57617;51.988;5.854;2023-04-25T06:40:10;100842.75;;;10.31;64.95
70229;BME280;57617;51.988;5.854;2023-04-25T06:42:36;100848.91;;;10.38;65.09
70229;BME280;57617;51.988;5.854;2023-04-25T06:45:01;100842.16;;;10.41;64.43
70229;BME280;57617;51.988;5.854;2023-04-25T06:47:26;100854.91;;;10.40;64.51
70229;BME280;57617;51.988;5.854;2023-04-25T06:49:51;100861.28;;;10.46;65.62
70229;BME280;57617;51.988;5.854;2023-04-25T06:52:17;100847.47;;;10.47;65.13
70229;BME280;57617;51.988;5.854;2023-04-25T06:54:43;100852.75;;;10.54;65.05
70229;BME280;57617;51.988;5.854;2023-04-25T06:57:08;100863.72;;;10.59;65.09
70229;BME280;57617;51.988;5.854;2023-04-25T06:59:33;100866.22;;;10.60;65.00
70229;BME280;57617;51.988;5.854;2023-04-25T07:01:59;100862.69;;;10.60;64.99
70229;BME280;57617;51.988;5.854;2023-04-25T07:04:24;100863.50;;;10.60;65.07
70229;BME280;57617;51.988;5.854;2023-04-25T07:06:50;100873.41;;;10.66;64.76
70229;BME280;57617;51.988;5.854;2023-04-25T07:09:15;100871.84;;;10.70;65.07
70229;BME280;57617;51.988;5.854;2023-04-25T07:11:41;100874.69;;;10.75;64.86
70229;BME280;57617;51.988;5.854;2023-04-25T07:14:06;100880.22;;;10.80;64.87
70229;BME280;57617;51.988;5.854;2023-04-25T07:16:32;100880.31;;;10.85;64.59
70229;BME280;57617;51.988;5.854;2023-04-25T07:18:57;100873.69;;;10.93;64.69
70229;BME280;57617;51.988;5.854;2023-04-25T07:21:22;100868.44;;;11.03;64.34
70229;BME280;57617;51.988;5.854;2023-04-25T07:23:47;100873.34;;;11.17;64.30
70229;BME280;57617;51.988;5.854;2023-04-25T07:26:13;100866.47;;;11.26;64.16
70229;BME280;57617;51.988;5.854;2023-04-25T07:28:38;100877.03;;;11.39;64.19
70229;BME280;57617;51.988;5.854;2023-04-25T07:31:04;100876.31;;;11.44;63.67
70229;BME280;57617;51.988;5.854;2023-04-25T07:33:30;100882.66;;;11.49;63.38
70229;BME280;57617;51.988;5.854;2023-04-25T07:35:55;100886.16;;;11.61;63.19
70229;BME280;57617;51.988;5.854;2023-04-25T07:38:21;100875.72;;;11.58;62.52
70229;BME280;57617;51.988;5.854;2023-04-25T07:40:47;100874.31;;;11.67;62.75
70229;BME280;57617;51.988;5.854;2023-04-25T07:43:13;100877.34;;;11.71;62.93
70229;BME280;57617;51.988;5.854;2023-04-25T07:45:42;100885.03;;;11.74;62.54
70229;BME280;57617;51.988;5.854;2023-04-25T07:48:07;100884.19;;;11.73;62.47
70229;BME280;57617;51.988;5.854;2023-04-25T07:50:33;100891.88;;;11.76;62.02
70229;BME280;57617;51.988;5.854;2023-04-25T07:52:58;100894.94;;;11.80;61.64
70229;BME280;57617;51.988;5.854;2023-04-25T07:55:23;100894.19;;;11.84;61.65
70229;BME280;57617;51.988;5.854;2023-04-25T07:57:48;100903.81;;;11.92;61.75
70229;BME280;57617;51.988;5.854;2023-04-25T08:00:14;100904.66;;;11.92;61.25
70229;BME280;57617;51.988;5.854;2023-04-25T08:02:40;100909.28;;;11.92;60.78
70229;BME280;57617;51.988;5.854;2023-04-25T08:05:05;100922.41;;;11.95;60.93
70229;BME280;57617;51.988;5.854;2023-04-25T08:07:33;100922.72;;;11.98;60.84
70229;BME280;57617;51.988;5.854;2023-04-25T08:09:58;100920.56;;;12.00;60.49
70229;BME280;57617;51.988;5.854;2023-04-25T08:12:24;100917.13;;;12.05;60.38
70229;BME280;57617;51.988;5.854;2023-04-25T08:14:49;100924.13;;;12.17;60.56
70229;BME280;57617;51.988;5.854;2023-04-25T08:17:15;100925.78;;;12.18;59.57
70229;BME280;57617;51.988;5.854;2023-04-25T08:19:40;100928.50;;;12.18;58.98
70229;BME280;57617;51.988;5.854;2023-04-25T08:22:05;100931.53;;;12.22;58.71
70229;BME280;57617;51.988;5.854;2023-04-25T08:24:31;100920.97;;;12.25;58.35
70229;BME280;57617;51.988;5.854;2023-04-25T08:26:56;100928.75;;;12.33;58.27
70229;BME280;57617;51.988;5.854;2023-04-25T08:29:22;100927.31;;;12.47;58.11
70229;BME280;57617;51.988;5.854;2023-04-25T08:31:49;100933.25;;;12.61;57.06
70229;BME280;57617;51.988;5.854;2023-04-25T08:34:14;100938.53;;;12.67;56.83
70229;BME280;57617;51.988;5.854;2023-04-25T08:36:40;100940.03;;;12.58;56.14
70229;BME280;57617;51.988;5.854;2023-04-25T08:39:05;100949.44;;;12.51;56.23
70229;BME280;57617;51.988;5.854;2023-04-25T08:41:30;100950.63;;;12.38;56.67
70229;BME280;57617;51.988;5.854;2023-04-25T08:43:57;100956.47;;;12.30;56.18
70229;BME280;57617;51.988;5.854;2023-04-25T08:46:25;100961.50;;;12.22;56.62
70229;BME280;57617;51.988;5.854;2023-04-25T08:48:53;100949.28;;;12.08;55.80
70229;BME280;57617;51.988;5.854;2023-04-25T08:51:25;100956.03;;;12.05;55.05
70229;BME280;57617;51.988;5.854;2023-04-25T08:53:51;100965.88;;;12.06;55.96
70229;BME280;57617;51.988;5.854;2023-04-25T08:56:17;100968.53;;;12.01;56.15
70229;BME280;57617;51.988;5.854;2023-04-25T08:58:48;100970.09;;;11.97;55.78
70229;BME280;57617;51.988;5.854;2023-04-25T09:01:13;100985.75;;;11.90;55.35
70229;BME280;57617;51.988;5.854;2023-04-25T09:03:38;100990.25;;;11.85;55.85
70229;BME280;57617;51.988;5.854;2023-04-25T09:06:05;100982.75;;;11.75;55.54
70229;BME280;57617;51.988;5.854;2023-04-25T09:08:30;101006.63;;;11.73;55.36
70229;BME280;57617;51.988;5.854;2023-04-25T09:10:55;101015.31;;;11.70;55.61
70229;BME280;57617;51.988;5.854;2023-04-25T09:13:26;101013.72;;;11.74;56.45
70229;BME280;57617;51.988;5.854;2023-04-25T09:15:54;101024.72;;;11.79;56.54
70229;BME280;57617;51.988;5.854;2023-04-25T09:18:26;101027.44;;;11.79;56.50
70229;BME280;57617;51.988;5.854;2023-04-25T09:20:53;101021.53;;;11.82;57.04
70229;BME280;57617;51.988;5.854;2023-04-25T09:23:20;101031.41;;;11.88;57.37
70229;BME280;57617;51.988;5.854;2023-04-25T09:25:51;101033.56;;;11.86;55.59
70229;BME280;57617;51.988;5.854;2023-04-25T09:28:23;101029.59;;;11.77;55.30
70229;BME280;57617;51.988;5.854;2023-04-25T09:30:49;101031.31;;;11.83;56.22
70229;BME280;57617;51.988;5.854;2023-04-25T09:33:14;101035.47;;;11.86;55.77
70229;BME280;57617;51.988;5.854;2023-04-25T09:35:42;101041.97;;;11.85;55.10
70229;BME280;57617;51.988;5.854;2023-04-25T09:38:18;101041.25;;;11.89;54.50
70229;BME280;57617;51.988;5.854;2023-04-25T09:40:45;101035.09;;;12.10;55.08
70229;BME280;57617;51.988;5.854;2023-04-25T09:43:23;101038.59;;;12.39;53.61
70229;BME280;57617;51.988;5.854;2023-04-25T09:45:51;101037.59;;;12.61;52.52
70229;BME280;57617;51.988;5.854;2023-04-25T09:48:19;101042.63;;;12.86;53.99
70229;BME280;57617;51.988;5.854;2023-04-25T09:50:45;101040.03;;;13.12;54.09
70229;BME280;57617;51.988;5.854;2023-04-25T09:53:10;101036.25;;;13.35;53.91
70229;BME280;57617;51.988;5.854;2023-04-25T09:55:35;101026.50;;;13.60;53.39
70229;BME280;57617;51.988;5.854;2023-04-25T09:58:04;101031.66;;;13.83;51.40
70229;BME280;57617;51.988;5.854;2023-04-25T10:00:33;101027.94;;;13.94;51.54
70229;BME280;57617;51.988;5.854;2023-04-25T10:03:01;101018.00;;;14.10;51.62
70229;BME280;57617;51.988;5.854;2023-04-25T10:05:30;101036.16;;;14.47;50.74
70229;BME280;57617;51.988;5.854;2023-04-25T10:07:58;101041.84;;;14.41;50.52
70229;BME280;57617;51.988;5.854;2023-04-25T10:10:24;101046.53;;;14.19;50.05
70229;BME280;57617;51.988;5.854;2023-04-25T10:12:52;101046.00;;;13.95;49.75
70229;BME280;57617;51.988;5.854;2023-04-25T10:15:19;101056.47;;;13.82;50.14
70229;BME280;57617;51.988;5.854;2023-04-25T10:17:45;101050.47;;;13.58;49.46
70229;BME280;57617;51.988;5.854;2023-04-25T10:20:10;101058.03;;;13.51;50.07
70229;BME280;57617;51.988;5.854;2023-04-25T10:22:42;101060.66;;;13.63;48.74
70229;BME280;57617;51.988;5.854;2023-04-25T10:25:09;101050.59;;;13.68;49.94
70229;BME280;57617;51.988;5.854;2023-04-25T10:27:35;101047.88;;;13.68;49.42
70229;BME280;57617;51.988;5.854;2023-04-25T10:30:13;101047.75;;;13.58;45.91
70229;BME280;57617;51.988;5.854;2023-04-25T10:32:41;101058.47;;;13.43;48.23
70229;BME280;57617;51.988;5.854;2023-04-25T10:35:25;101070.06;;;13.34;46.39
70229;BME280;57617;51.988;5.854;2023-04-25T10:38:08;101074.31;;;13.25;48.19
70229;BME280;57617;51.988;5.854;2023-04-25T10:40:34;101077.16;;;13.13;49.85
70229;BME280;57617;51.988;5.854;2023-04-25T10:45:55;101086.63;;;13.27;50.54
70229;BME280;57617;51.988;5.854;2023-04-25T10:48:31;101080.16;;;13.33;50.17
70229;BME280;57617;51.988;5.854;2023-04-25T10:51:09;101084.63;;;13.39;48.78
70229;BME280;57617;51.988;5.854;2023-04-25T10:53:36;101086.44;;;13.34;48.97
70229;BME280;57617;51.988;5.854;2023-04-25T10:56:10;101088.63;;;13.32;46.43
70229;BME280;57617;51.988;5.854;2023-04-25T10:58:35;101094.06;;;13.53;48.81
70229;BME280;57617;51.988;5.854;2023-04-25T11:01:01;101085.13;;;13.79;48.20
70229;BME280;57617;51.988;5.854;2023-04-25T11:03:26;101084.13;;;14.12;48.35
70229;BME280;57617;51.988;5.854;2023-04-25T11:05:52;101078.25;;;14.51;48.38
70229;BME280;57617;51.988;5.854;2023-04-25T11:08:25;101082.94;;;14.82;47.08
70229;BME280;57617;51.988;5.854;2023-04-25T11:10:58;101068.22;;;14.93;47.55
70229;BME280;57617;51.988;5.854;2023-04-25T11:13:29;101077.13;;;15.15;46.58
70229;BME280;57617;51.988;5.854;2023-04-25T11:15:54;101071.16;;;15.23;46.70
70229;BME280;57617;51.988;5.854;2023-04-25T11:18:20;101083.97;;;15.18;46.17
70229;BME280;57617;51.988;5.854;2023-04-25T11:20:47;101089.19;;;15.19;44.62
70229;BME280;57617;51.988;5.854;2023-04-25T11:23:13;101086.63;;;15.03;43.11
70229;BME280;57617;51.988;5.854;2023-04-25T11:25:38;101077.13;;;15.15;44.63
70229;BME280;57617;51.988;5.854;2023-04-25T11:28:04;101069.53;;;15.27;43.76
70229;BME280;57617;51.988;5.854;2023-04-25T11:30:29;101069.66;;;15.47;43.96
70229;BME280;57617;51.988;5.854;2023-04-25T11:32:56;101066.72;;;15.59;43.74
70229;BME280;57617;51.988;5.854;2023-04-25T11:35:21;101068.66;;;15.68;43.67
70229;BME280;57617;51.988;5.854;2023-04-25T11:37:48;101073.09;;;15.74;43.10
70229;BME280;57617;51.988;5.854;2023-04-25T11:40:14;101079.47;;;15.33;42.22
70229;BME280;57617;51.988;5.854;2023-04-25T11:42:44;101078.22;;;15.14;42.85
70229;BME280;57617;51.988;5.854;2023-04-25T11:45:10;101085.44;;;14.94;43.80
70229;BME280;57617;51.988;5.854;2023-04-25T11:47:36;101095.47;;;14.78;44.07
70229;BME280;57617;51.988;5.854;2023-04-25T11:50:02;101093.38;;;14.90;44.23
70229;BME280;57617;51.988;5.854;2023-04-25T11:52:43;101090.53;;;15.12;42.85
70229;BME280;57617;51.988;5.854;2023-04-25T11:55:14;101089.53;;;15.28;44.17
70229;BME280;57617;51.988;5.854;2023-04-25T11:57:41;101089.38;;;15.44;42.03
70229;BME280;57617;51.988;5.854;2023-04-25T12:00:15;101084.34;;;15.31;41.42
70229;BME280;57617;51.988;5.854;2023-04-25T12:02:52;101087.75;;;15.07;41.58
70229;BME280;57617;51.988;5.854;2023-04-25T12:05:18;101082.88;;;14.77;42.40
70229;BME280;57617;51.988;5.854;2023-04-25T12:07:45;101110.06;;;14.57;43.57
70229;BME280;57617;51.988;5.854;2023-04-25T12:10:15;101132.69;;;14.26;44.04
70229;BME280;57617;51.988;5.854;2023-04-25T12:12:42;101135.97;;;14.07;45.22
70229;BME280;57617;51.988;5.854;2023-04-25T12:15:11;101139.22;;;13.82;45.54
70229;BME280;57617;51.988;5.854;2023-04-25T12:17:40;101143.63;;;13.62;45.18
70229;BME280;57617;51.988;5.854;2023-04-25T12:20:10;101142.97;;;13.38;46.70
70229;BME280;57617;51.988;5.854;2023-04-25T12:22:37;101141.53;;;13.14;48.34
70229;BME280;57617;51.988;5.854;2023-04-25T12:25:03;101146.03;;;12.92;48.06
70229;BME280;57617;51.988;5.854;2023-04-25T12:27:31;101147.78;;;12.82;49.27
70229;BME280;57617;51.988;5.854;2023-04-25T12:29:57;101148.59;;;12.82;49.43
70229;BME280;57617;51.988;5.854;2023-04-25T12:32:22;101158.59;;;12.77;48.99
70229;BME280;57617;51.988;5.854;2023-04-25T12:34:48;101155.97;;;12.82;49.55
70229;BME280;57617;51.988;5.854;2023-04-25T12:37:13;101153.91;;;12.89;49.16
70229;BME280;57617;51.988;5.854;2023-04-25T12:39:39;101152.78;;;13.01;49.27
70229;BME280;57617;51.988;5.854;2023-04-25T12:42:04;101138.56;;;12.99;48.71
70229;BME280;57617;51.988;5.854;2023-04-25T12:44:30;101148.88;;;13.14;48.66
70229;BME280;57617;51.988;5.854;2023-04-25T12:46:55;101150.94;;;13.23;48.51
70229;BME280;57617;51.988;5.854;2023-04-25T12:49:20;101141.69;;;13.24;48.34
70229;BME280;57617;51.988;5.854;2023-04-25T12:51:46;101151.94;;;13.34;47.66